createdAt,value
2018-11-05T00:00:32.576Z,30.17
2018-11-05T00:03:01.486Z,32.73
2018-11-05T00:05:30.407Z,28.97
2018-11-05T00:07:59.316Z,25.17
2018-11-05T00:10:28.262Z,29.83
2018-11-05T00:12:57.163Z,31.30
2018-11-05T00:15:26.089Z,30.73
2018-11-05T00:17:55.033Z,34.63
2018-11-05T00:20:23.975Z,38.37
2018-11-05T00:22:52.936Z,36.47
2018-11-05T00:25:21.880Z,36.10
2018-11-05T00:27:50.771Z,38.37
2018-11-05T00:30:19.677Z,38.57
2018-11-05T00:32:48.655Z,42.23
2018-11-05T00:35:17.521Z,36.20
2018-11-05T00:37:46.398Z,33.73
2018-11-05T00:40:16.349Z,33.43
2018-11-05T00:42:45.866Z,37.07
2018-11-05T00:45:15.252Z,35.20
2018-11-05T00:47:44.483Z,37.27
2018-11-05T00:50:14.672Z,35.10
2018-11-05T00:52:43.562Z,38.37
2018-11-05T00:55:13.084Z,36.20
2018-11-05T00:57:41.984Z,37.03
2018-11-05T01:00:15.584Z,35.23
2018-11-05T01:02:44.551Z,40.97
2018-11-05T01:05:17.060Z,38.07
2018-11-05T01:07:46.472Z,36.10
2018-11-05T01:10:16.208Z,39.83
2018-11-05T01:12:45.145Z,36.77
2018-11-05T01:15:17.759Z,38.60
2018-11-05T01:17:46.646Z,36.97
2018-11-05T01:20:16.139Z,39.80
2018-11-05T01:22:45.059Z,39.73
2018-11-05T01:25:14.015Z,37.77
2018-11-05T01:27:42.954Z,40.20
2018-11-05T01:30:13.106Z,54.80
2018-11-05T01:32:42.240Z,40.10
2018-11-05T01:35:12.490Z,43.65
2018-11-05T01:37:41.402Z,35.50
2018-11-05T01:40:12.704Z,29.93
2018-11-05T01:42:41.783Z,33.30
2018-11-05T01:45:11.918Z,31.57
2018-11-05T01:47:41.729Z,39.78
2018-11-05T01:50:12.446Z,37.63
2018-11-05T01:52:41.828Z,39.03
2018-11-05T01:55:11.215Z,34.10
2018-11-05T01:57:40.654Z,33.83
2018-11-05T02:00:11.737Z,35.52
2018-11-05T02:02:40.614Z,37.45
2018-11-05T02:05:10.508Z,32.33
2018-11-05T02:07:39.982Z,28.50
2018-11-05T02:10:11.324Z,27.53
2018-11-05T02:12:40.461Z,28.63
2018-11-05T02:15:09.916Z,26.07
2018-11-05T02:17:39.387Z,28.60
2018-11-05T02:20:08.384Z,31.90
2018-11-05T02:22:37.525Z,29.30
2018-11-05T02:25:07.443Z,28.23
2018-11-05T02:27:36.331Z,31.67
2018-11-05T02:30:08.436Z,32.53
2018-11-05T02:32:37.345Z,41.83
2018-11-05T02:35:07.431Z,34.70
2018-11-05T02:37:36.425Z,31.20
2018-11-05T02:40:07.979Z,35.33
2018-11-05T02:42:36.882Z,32.47
2018-11-05T02:45:07.120Z,29.90
2018-11-05T02:47:36.153Z,30.97
2018-11-05T02:50:05.941Z,34.77
2018-11-05T02:52:34.856Z,33.53
2018-11-05T02:55:04.015Z,35.17
2018-11-05T02:57:32.939Z,35.30
2018-11-05T03:00:01.865Z,37.43
2018-11-05T03:02:30.767Z,34.47
2018-11-05T03:04:59.737Z,30.07
2018-11-05T03:07:28.655Z,48.90
2018-11-05T03:09:57.610Z,35.73
2018-11-05T03:12:26.521Z,40.97
2018-11-05T03:14:55.461Z,39.97
2018-11-05T03:17:24.349Z,37.23
2018-11-05T03:19:53.265Z,35.73
2018-11-05T03:22:22.539Z,37.33
2018-11-05T03:24:51.456Z,32.70
2018-11-05T03:27:20.379Z,37.27
2018-11-05T03:29:49.294Z,35.40
2018-11-05T03:32:18.223Z,30.10
2018-11-05T03:34:47.194Z,28.47
2018-11-05T03:37:16.144Z,26.70
2018-11-05T03:39:45.045Z,32.03
2018-11-05T03:42:14.021Z,32.07
2018-11-05T03:44:42.941Z,29.47
2018-11-05T03:47:11.912Z,29.80
2018-11-05T03:49:40.861Z,32.87
2018-11-05T03:52:09.823Z,28.17
2018-11-05T03:54:38.794Z,30.30
2018-11-05T03:57:07.797Z,28.33
2018-11-05T03:59:36.792Z,28.57
2018-11-05T04:02:05.954Z,29.97
2018-11-05T04:04:34.861Z,28.97
2018-11-05T04:07:03.814Z,25.13
2018-11-05T04:09:32.763Z,27.77
2018-11-05T04:12:01.697Z,29.40
2018-11-05T04:14:30.624Z,29.83
2018-11-05T04:16:59.544Z,38.33
2018-11-05T04:19:28.449Z,37.10
2018-11-05T04:21:57.449Z,38.10
2018-11-05T04:24:26.312Z,44.43
2018-11-05T04:26:55.249Z,41.27
2018-11-05T04:29:24.152Z,41.45
2018-11-05T04:31:53.060Z,47.63
2018-11-05T04:34:21.980Z,39.00
2018-11-05T04:36:50.905Z,35.70
2018-11-05T04:39:19.856Z,45.57
2018-11-05T04:41:48.783Z,39.57
2018-11-05T04:44:17.711Z,43.80
2018-11-05T04:46:46.632Z,39.27
2018-11-05T04:49:15.564Z,42.40
2018-11-05T04:51:44.449Z,33.67
2018-11-05T04:54:13.401Z,37.50
2018-11-05T04:56:42.292Z,40.13
2018-11-05T04:59:11.191Z,37.53
2018-11-05T05:01:40.092Z,39.53
2018-11-05T05:04:09.015Z,37.73
2018-11-05T05:06:37.910Z,39.97
2018-11-05T05:09:09.482Z,47.93
2018-11-05T05:11:38.431Z,44.30
2018-11-05T05:14:07.517Z,41.07
2018-11-05T05:16:36.832Z,44.20
2018-11-05T05:19:05.831Z,44.77
2018-11-05T05:21:34.738Z,42.87
2018-11-05T05:24:03.872Z,40.70
2018-11-05T05:26:32.800Z,45.90
2018-11-05T05:29:01.784Z,43.00
2018-11-05T05:31:30.656Z,44.00
2018-11-05T05:33:59.564Z,45.73
2018-11-05T05:36:28.659Z,47.97
2018-11-05T05:38:57.548Z,52.63
2018-11-05T05:41:26.498Z,45.23
2018-11-05T05:43:55.347Z,46.00
2018-11-05T05:46:24.275Z,42.93
2018-11-05T05:48:53.295Z,55.95
2018-11-05T05:51:22.132Z,49.97
2018-11-05T05:53:51.064Z,43.40
2018-11-05T05:56:19.982Z,46.43
2018-11-05T05:58:48.936Z,47.53
2018-11-05T06:01:17.863Z,48.27
2018-11-05T06:03:46.775Z,50.73
2018-11-05T06:06:15.811Z,51.17
2018-11-05T06:08:44.613Z,75.50
2018-11-05T06:11:13.541Z,58.23
2018-11-05T06:13:42.455Z,49.90
2018-11-05T06:16:11.465Z,44.10
2018-11-05T06:18:40.634Z,50.27
2018-11-05T06:21:09.580Z,48.90
2018-11-05T06:23:38.504Z,46.77
2018-11-05T06:26:07.491Z,45.60
2018-11-05T06:28:36.504Z,47.03
2018-11-05T06:31:05.930Z,47.27
2018-11-05T06:33:34.953Z,44.90
2018-11-05T06:36:03.870Z,46.70
2018-11-05T06:38:32.774Z,41.87
2018-11-05T06:41:01.719Z,38.63
2018-11-05T06:43:30.638Z,40.37
2018-11-05T06:45:59.585Z,37.27
2018-11-05T06:48:28.495Z,36.60
2018-11-05T06:50:57.409Z,35.60
2018-11-05T06:53:26.319Z,38.70
2018-11-05T06:55:55.274Z,36.37
2018-11-05T06:58:24.198Z,44.23
2018-11-05T07:00:53.108Z,37.10
2018-11-05T07:03:22.018Z,50.15
2018-11-05T07:05:51.067Z,43.40
2018-11-05T07:08:19.907Z,42.10
2018-11-05T07:10:48.857Z,39.80
2018-11-05T07:13:17.828Z,40.83
2018-11-05T07:15:46.737Z,44.37
2018-11-05T07:18:15.758Z,46.77
2018-11-05T07:20:44.625Z,43.13
2018-11-05T07:23:13.593Z,39.93
2018-11-05T07:25:42.484Z,48.75
2018-11-05T07:28:11.404Z,37.70
2018-11-05T07:30:40.349Z,42.77
2018-11-05T07:33:09.436Z,46.33
2018-11-05T07:35:38.339Z,35.50
2018-11-05T07:38:07.452Z,39.70
2018-11-05T07:40:36.356Z,38.93
2018-11-05T07:43:05.702Z,37.13
2018-11-05T07:45:34.668Z,40.27
2018-11-05T07:48:03.714Z,37.33
2018-11-05T07:50:32.689Z,43.47
2018-11-05T07:53:01.582Z,42.40
2018-11-05T07:55:30.524Z,36.53
2018-11-05T07:57:59.426Z,42.20
2018-11-05T08:00:46.301Z,37.63
2018-11-05T08:03:15.186Z,44.25
2018-11-05T08:05:44.097Z,44.47
2018-11-05T08:08:13.136Z,43.73
2018-11-05T08:10:41.941Z,39.23
2018-11-05T08:13:10.860Z,42.70
2018-11-05T08:15:39.806Z,36.47
2018-11-05T08:18:08.769Z,37.63
2018-11-05T08:20:37.747Z,37.77
2018-11-05T08:23:06.877Z,40.93
2018-11-05T08:25:35.785Z,40.70
2018-11-05T08:28:04.837Z,43.73
2018-11-05T08:30:33.749Z,37.53
2018-11-05T08:33:02.688Z,38.83
2018-11-05T08:35:31.609Z,44.20
2018-11-05T08:38:00.637Z,39.20
2018-11-05T08:40:29.547Z,39.93
2018-11-05T08:42:58.465Z,39.20
2018-11-05T08:45:28.864Z,37.77
2018-11-05T08:47:57.811Z,35.67
2018-11-05T08:50:26.839Z,38.20
2018-11-05T08:52:55.772Z,37.07
2018-11-05T08:55:25.834Z,46.50
2018-11-05T08:57:54.755Z,37.97
2018-11-05T09:00:41.384Z,36.17
2018-11-05T09:03:10.451Z,37.83
2018-11-05T09:05:39.430Z,39.23
2018-11-05T09:08:08.717Z,37.30
2018-11-05T09:10:38.024Z,35.20
2018-11-05T09:13:07.224Z,36.40
2018-11-05T09:15:36.229Z,37.53
2018-11-05T09:18:05.237Z,36.30
2018-11-05T09:20:34.274Z,37.60
2018-11-05T09:23:03.209Z,35.10
2018-11-05T09:25:32.182Z,36.30
2018-11-05T09:28:01.163Z,34.83
2018-11-05T09:30:30.037Z,36.47
2018-11-05T09:32:59.013Z,34.33
2018-11-05T09:35:27.965Z,34.90
2018-11-05T09:37:56.939Z,35.33
2018-11-05T09:40:25.939Z,33.63
2018-11-05T09:42:54.933Z,34.00
2018-11-05T09:45:25.186Z,36.13
2018-11-05T09:47:54.097Z,32.77
2018-11-05T09:50:23.089Z,32.63
2018-11-05T09:52:52.070Z,31.43
2018-11-05T09:55:21.037Z,35.03
2018-11-05T09:57:50.036Z,34.13
2018-11-05T10:00:23.218Z,38.00
2018-11-05T10:03:10.256Z,39.53
2018-11-05T10:05:39.061Z,35.07
2018-11-05T10:08:08.099Z,37.23
2018-11-05T10:10:37.079Z,37.00
2018-11-05T10:13:06.172Z,35.10
2018-11-05T10:15:35.075Z,38.00
2018-11-05T10:18:04.111Z,37.20
2018-11-05T10:20:33.029Z,38.20
2018-11-05T10:23:01.997Z,41.77
2018-11-05T10:25:30.960Z,43.10
2018-11-05T10:28:03.441Z,43.90
2018-11-05T10:30:32.537Z,44.43
2018-11-05T10:33:01.566Z,50.83
2018-11-05T10:35:48.418Z,49.90
2018-11-05T10:38:17.359Z,50.20
2018-11-05T10:40:46.398Z,49.27
2018-11-05T10:43:15.355Z,49.77
2018-11-05T10:45:44.305Z,50.70
2018-11-05T10:48:13.528Z,49.33
2018-11-05T10:50:42.541Z,56.33
2018-11-05T10:53:11.483Z,53.67
2018-11-05T10:55:40.425Z,54.97
2018-11-05T10:58:09.608Z,54.40
2018-11-05T11:00:57.342Z,55.23
2018-11-05T11:03:31.645Z,55.00
2018-11-05T11:06:01.729Z,54.23
2018-11-05T11:08:32.324Z,54.67
2018-11-05T11:11:01.694Z,56.73
2018-11-05T11:13:31.702Z,58.23
2018-11-05T11:16:01.228Z,57.47
2018-11-05T11:18:31.047Z,68.80
2018-11-05T11:21:00.050Z,62.13
2018-11-05T11:23:29.429Z,58.87
2018-11-05T11:25:58.388Z,62.13
2018-11-05T11:28:27.599Z,61.50
2018-11-05T11:30:56.369Z,58.37
2018-11-05T11:33:25.302Z,62.40
2018-11-05T11:35:55.447Z,63.03
2018-11-05T11:38:24.563Z,65.90
2018-11-05T11:40:54.133Z,61.37
2018-11-05T11:43:23.058Z,66.80
2018-11-05T11:45:52.021Z,64.80
2018-11-05T11:48:20.958Z,63.73
2018-11-05T11:50:49.878Z,64.63
2018-11-05T11:53:19.069Z,64.57
2018-11-05T11:55:47.982Z,62.83
2018-11-05T11:58:16.900Z,63.50
2018-11-05T12:00:45.894Z,65.53
2018-11-05T12:03:14.826Z,65.67
2018-11-05T12:05:43.805Z,63.83
2018-11-05T12:08:12.802Z,70.60
2018-11-05T12:10:41.801Z,66.33
2018-11-05T12:13:10.885Z,73.07
2018-11-05T12:15:39.863Z,66.23
2018-11-05T12:18:08.948Z,67.47
2018-11-05T12:20:37.828Z,70.43
2018-11-05T12:23:07.013Z,65.17
2018-11-05T12:25:36.042Z,69.57
2018-11-05T12:28:05.014Z,64.23
2018-11-05T12:30:33.917Z,64.83
2018-11-05T12:33:02.937Z,69.80
2018-11-05T12:35:31.887Z,70.73
2018-11-05T12:38:00.830Z,74.67
2018-11-05T12:40:29.737Z,68.37
2018-11-05T12:42:58.698Z,67.23
2018-11-05T12:45:27.654Z,68.07
2018-11-05T12:47:56.606Z,69.23
2018-11-05T12:50:25.687Z,70.03
2018-11-05T12:52:55.512Z,71.90
2018-11-05T12:55:24.630Z,66.53
2018-11-05T12:57:53.673Z,65.83
2018-11-05T13:00:26.092Z,71.80
2018-11-05T13:02:58.847Z,65.80
2018-11-05T13:05:32.471Z,70.03
2018-11-05T13:08:01.670Z,66.03
2018-11-05T13:10:30.624Z,67.77
2018-11-05T13:12:59.748Z,74.90
2018-11-05T13:15:28.880Z,67.10
2018-11-05T13:17:57.517Z,63.67
2018-11-05T13:20:26.460Z,67.30
2018-11-05T13:22:55.368Z,63.73
2018-11-05T13:25:24.334Z,63.23
2018-11-05T13:27:53.255Z,62.13
2018-11-05T13:30:22.319Z,65.78
2018-11-05T13:32:51.238Z,56.57
2018-11-05T13:35:21.381Z,64.95
2018-11-05T13:37:50.763Z,64.23
2018-11-05T13:40:20.549Z,66.00
2018-11-05T13:42:50.018Z,60.13
2018-11-05T13:45:19.451Z,59.63
2018-11-05T13:47:48.985Z,57.03
2018-11-05T13:50:17.678Z,66.30
2018-11-05T13:52:46.398Z,57.87
2018-11-05T13:55:16.317Z,59.03
2018-11-05T13:57:46.497Z,57.80
2018-11-05T14:00:16.595Z,53.97
2018-11-05T14:02:45.653Z,57.90
2018-11-05T14:05:14.744Z,58.03
2018-11-05T14:07:43.721Z,58.93
2018-11-05T14:10:17.011Z,55.10
2018-11-05T14:12:46.570Z,57.13
2018-11-05T14:15:15.360Z,53.77
2018-11-05T14:17:44.787Z,55.63
2018-11-05T14:20:14.771Z,58.95
2018-11-05T14:22:43.940Z,54.27
2018-11-05T14:25:16.917Z,54.63
2018-11-05T14:27:47.499Z,54.47
2018-11-05T14:30:16.776Z,56.30
2018-11-05T14:32:46.392Z,56.30
2018-11-05T14:35:15.433Z,51.77
2018-11-05T14:37:44.358Z,49.50
2018-11-05T14:40:14.605Z,57.47
2018-11-05T14:42:43.583Z,57.27
2018-11-05T14:45:19.892Z,57.05
2018-11-05T14:47:50.427Z,53.77
2018-11-05T14:50:20.879Z,51.93
2018-11-05T14:52:49.697Z,51.70
2018-11-05T14:55:19.714Z,53.73
2018-11-05T14:57:49.959Z,56.58
2018-11-05T15:00:28.593Z,54.10
2018-11-05T15:02:58.141Z,52.93
2018-11-05T15:05:27.089Z,52.50
2018-11-05T15:07:55.993Z,51.77
2018-11-05T15:10:25.783Z,51.33
2018-11-05T15:12:54.690Z,52.27
2018-11-05T15:15:23.932Z,48.53
2018-11-05T15:17:52.875Z,45.40
2018-11-05T15:20:22.786Z,46.60
2018-11-05T15:22:51.778Z,49.77
2018-11-05T15:25:21.368Z,46.67
2018-11-05T15:27:50.308Z,50.10
2018-11-05T15:30:20.557Z,52.73
2018-11-05T15:32:49.536Z,48.63
2018-11-05T15:35:18.422Z,49.70
2018-11-05T15:37:47.378Z,50.63
2018-11-05T15:40:17.556Z,51.90
2018-11-05T15:42:46.487Z,50.97
2018-11-05T15:45:16.664Z,47.70
2018-11-05T15:47:45.579Z,49.00
2018-11-05T15:50:15.851Z,50.63
2018-11-05T15:52:45.140Z,48.63
2018-11-05T15:55:13.972Z,49.13
2018-11-05T15:57:42.884Z,45.47
2018-11-05T16:00:24.700Z,51.40
2018-11-05T16:03:00.868Z,50.27
2018-11-05T16:05:29.802Z,48.33
2018-11-05T16:07:58.784Z,49.50
2018-11-05T16:10:27.723Z,50.57
2018-11-05T16:12:56.637Z,49.33
2018-11-05T16:15:25.553Z,52.53
2018-11-05T16:17:54.425Z,50.13
2018-11-05T16:20:23.779Z,48.90
2018-11-05T16:22:53.089Z,51.17
2018-11-05T16:25:22.052Z,54.10
2018-11-05T16:27:50.900Z,56.75
2018-11-05T16:30:20.971Z,55.30
2018-11-05T16:32:50.496Z,55.27
2018-11-05T16:35:19.443Z,53.33
2018-11-05T16:37:48.395Z,51.93
2018-11-05T16:40:18.179Z,52.07
2018-11-05T16:42:48.198Z,52.33
2018-11-05T16:45:17.113Z,53.63
2018-11-05T16:47:46.290Z,50.80
2018-11-05T16:50:25.732Z,51.73
2018-11-05T16:52:54.746Z,57.73
2018-11-05T16:55:23.904Z,54.23
2018-11-05T16:57:52.919Z,59.30
2018-11-05T17:00:21.728Z,56.07
2018-11-05T17:02:50.839Z,52.83
2018-11-05T17:05:19.609Z,55.53
2018-11-05T17:07:48.523Z,59.33
2018-11-05T17:10:17.441Z,52.13
2018-11-05T17:12:46.421Z,53.63
2018-11-05T17:15:16.371Z,53.27
2018-11-05T17:17:45.689Z,52.53
2018-11-05T17:20:15.879Z,56.27
2018-11-05T17:22:45.098Z,55.80
2018-11-05T17:25:14.410Z,52.37
2018-11-05T17:27:43.918Z,55.03
2018-11-05T17:30:15.464Z,52.90
2018-11-05T17:32:44.874Z,49.67
2018-11-05T17:35:14.263Z,49.43
2018-11-05T17:37:43.573Z,48.23
2018-11-05T17:40:13.832Z,49.87
2018-11-05T17:42:42.783Z,51.27
2018-11-05T17:45:13.008Z,50.77
2018-11-05T17:47:42.011Z,50.20
2018-11-05T17:50:13.359Z,48.70
2018-11-05T17:52:42.547Z,50.93
2018-11-05T17:55:12.146Z,45.20
2018-11-05T17:57:42.095Z,46.03
2018-11-05T18:00:13.816Z,44.43
2018-11-05T18:02:42.759Z,46.17
2018-11-05T18:05:11.759Z,45.90
2018-11-05T18:07:40.706Z,48.80
2018-11-05T18:10:09.710Z,48.20
2018-11-05T18:12:38.707Z,43.03
2018-11-05T18:15:09.388Z,48.68
2018-11-05T18:17:38.830Z,51.08
2018-11-05T18:20:09.104Z,44.93
2018-11-05T18:22:38.074Z,47.80
2018-11-05T18:25:08.711Z,44.80
2018-11-05T18:27:37.673Z,44.67
2018-11-05T18:30:07.247Z,42.13
2018-11-05T18:32:36.170Z,50.23
2018-11-05T18:35:05.439Z,42.47
2018-11-05T18:37:34.374Z,45.17
2018-11-05T18:40:03.490Z,43.43
2018-11-05T18:42:32.464Z,49.30
2018-11-05T18:45:01.363Z,45.10
2018-11-05T18:47:30.272Z,43.87
2018-11-05T18:49:59.262Z,40.43
2018-11-05T18:52:28.134Z,44.67
2018-11-05T18:54:57.077Z,45.23
2018-11-05T18:57:26.004Z,39.40
2018-11-05T18:59:54.930Z,44.97
2018-11-05T19:02:33.389Z,44.83
2018-11-05T19:05:02.317Z,47.07
2018-11-05T19:07:31.498Z,45.80
2018-11-05T19:10:00.422Z,49.90
2018-11-05T19:12:29.323Z,49.65
2018-11-05T19:14:58.305Z,50.38
2018-11-05T19:17:27.208Z,50.17
2018-11-05T19:19:56.151Z,52.80
2018-11-05T19:22:25.196Z,49.40
2018-11-05T19:24:53.997Z,51.50
2018-11-05T19:27:22.921Z,48.73
2018-11-05T19:29:51.927Z,41.33
2018-11-05T19:32:20.802Z,42.53
2018-11-05T19:34:49.711Z,45.33
2018-11-05T19:37:18.631Z,45.23
2018-11-05T19:39:47.552Z,44.63
2018-11-05T19:42:16.541Z,43.77
2018-11-05T19:44:45.432Z,43.70
2018-11-05T19:47:14.366Z,45.77
2018-11-05T19:49:43.332Z,47.33
2018-11-05T19:52:12.200Z,42.40
2018-11-05T19:54:42.660Z,47.33
2018-11-05T19:57:11.529Z,42.63
2018-11-05T19:59:40.702Z,44.50
2018-11-05T20:02:11.529Z,42.87
2018-11-05T20:04:40.642Z,45.27
2018-11-05T20:07:10.334Z,46.40
2018-11-05T20:09:39.250Z,42.87
2018-11-05T20:12:08.175Z,46.30
2018-11-05T20:14:37.139Z,47.23
2018-11-05T20:17:06.085Z,46.43
2018-11-05T20:19:35.031Z,46.20
2018-11-05T20:22:03.982Z,41.47
2018-11-05T20:24:32.897Z,44.60
2018-11-05T20:27:01.839Z,44.40
2018-11-05T20:29:30.791Z,45.47
2018-11-05T20:32:00.037Z,43.57
2018-11-05T20:34:28.849Z,48.53
2018-11-05T20:36:57.565Z,41.83
2018-11-05T20:39:26.466Z,48.33
2018-11-05T20:41:56.641Z,44.67
2018-11-05T20:44:25.501Z,45.27
2018-11-05T20:46:54.401Z,42.13
2018-11-05T20:49:23.324Z,45.00
2018-11-05T20:51:52.234Z,48.98
2018-11-05T20:54:21.202Z,43.50
2018-11-05T20:56:50.125Z,44.50
2018-11-05T20:59:19.082Z,44.10
2018-11-05T21:01:48.012Z,41.57
2018-11-05T21:04:16.966Z,41.27
2018-11-05T21:06:45.957Z,48.20
2018-11-05T21:09:14.871Z,48.15
2018-11-05T21:11:43.782Z,44.93
2018-11-05T21:14:12.729Z,46.33
2018-11-05T21:16:41.641Z,39.63
2018-11-05T21:19:10.575Z,39.87
2018-11-05T21:21:39.637Z,43.77
2018-11-05T21:24:08.421Z,45.33
2018-11-05T21:26:37.537Z,47.40
2018-11-05T21:29:06.291Z,40.13
2018-11-05T21:31:35.198Z,43.13
2018-11-05T21:34:04.109Z,41.57
2018-11-05T21:36:33.028Z,36.83
2018-11-05T21:39:01.939Z,50.92
2018-11-05T21:41:30.923Z,51.17
2018-11-05T21:43:59.862Z,54.73
2018-11-05T21:46:28.810Z,54.87
2018-11-05T21:48:57.773Z,47.70
2018-11-05T21:51:26.721Z,60.00
2018-11-05T21:53:55.718Z,45.70
2018-11-05T21:56:24.628Z,40.80
2018-11-05T21:58:53.782Z,40.83
2018-11-05T22:01:23.855Z,44.13
2018-11-05T22:03:52.806Z,47.50
2018-11-05T22:06:21.746Z,47.17
2018-11-05T22:08:50.673Z,48.23
2018-11-05T22:11:19.608Z,51.00
2018-11-05T22:13:48.553Z,50.37
2018-11-05T22:16:17.468Z,50.23
2018-11-05T22:18:46.405Z,43.47
2018-11-05T22:21:15.349Z,47.83
2018-11-05T22:23:44.268Z,42.60
2018-11-05T22:26:13.175Z,45.55
2018-11-05T22:28:42.078Z,42.47
2018-11-05T22:31:10.973Z,38.83
2018-11-05T22:33:39.899Z,45.33
2018-11-05T22:36:08.841Z,48.27
2018-11-05T22:38:37.772Z,33.97
2018-11-05T22:41:07.016Z,29.17
2018-11-05T22:43:35.948Z,45.65
2018-11-05T22:46:05.092Z,39.23
2018-11-05T22:48:34.023Z,43.10
2018-11-05T22:51:02.940Z,43.50
2018-11-05T22:53:31.868Z,40.67
2018-11-05T22:56:00.767Z,45.33
2018-11-05T22:58:29.684Z,36.03
2018-11-05T23:01:08.649Z,40.20
2018-11-05T23:03:37.565Z,36.20
2018-11-05T23:06:06.525Z,35.03
2018-11-05T23:08:35.430Z,33.67
2018-11-05T23:11:04.360Z,41.00
2018-11-05T23:13:33.301Z,37.40
2018-11-05T23:16:02.217Z,34.67
2018-11-05T23:18:31.153Z,33.50
2018-11-05T23:21:00.054Z,34.67
2018-11-05T23:23:28.995Z,31.83
2018-11-05T23:25:57.915Z,41.23
2018-11-05T23:28:27.877Z,47.00
2018-11-05T23:30:56.843Z,48.23
2018-11-05T23:33:25.928Z,41.87
2018-11-05T23:35:54.675Z,36.57
2018-11-05T23:38:23.690Z,38.42
2018-11-05T23:40:52.613Z,37.33
2018-11-05T23:43:21.456Z,39.93
2018-11-05T23:45:50.426Z,45.20
2018-11-05T23:48:19.351Z,40.97
2018-11-05T23:50:48.305Z,38.50
2018-11-05T23:53:17.224Z,38.40
2018-11-05T23:55:46.128Z,39.87
2018-11-05T23:58:15.083Z,34.77
